Time;durP1;ratioP1;P1;durP2;ratioP2;P2;SDS_P1;SDS_P2;PMS_P1;PMS_P2;Temp;Humidity;BMP_temperature;BMP_pressure;BME280_temperature;BME280_humidity;BME280_pressure;Samples;Min_cycle;Max_cycle;Signal;HPM_P1;HPM_P2
2022/03/25 00:01:59;;;;;;;520.33;42.63;;;9.00;99.90;;;;;;5043066;28;20047;-73
2022/03/25 00:04:25;;;;;;;522.17;42.17;;;8.90;99.90;;;;;;5069176;28;20040;-74
2022/03/25 00:06:52;;;;;;;473.15;41.25;;;9.00;99.90;;;;;;5042853;28;20121;-73
2022/03/25 00:09:17;;;;;;;641.95;50.85;;;9.00;99.90;;;;;;5065918;28;20037;-73
2022/03/25 00:11:43;;;;;;;551.42;46.60;;;8.90;99.90;;;;;;5059588;28;20338;-73
2022/03/25 00:14:11;;;;;;;431.92;39.45;;;8.80;99.90;;;;;;5071652;28;20047;-73
2022/03/25 00:16:37;;;;;;;391.08;40.30;;;8.80;99.90;;;;;;5078832;28;20374;-73
2022/03/25 00:19:03;;;;;;;472.92;43.13;;;8.90;99.90;;;;;;5049193;28;20330;-73
2022/03/25 00:21:29;;;;;;;493.88;42.47;;;9.00;99.90;;;;;;5060901;28;20044;-73
2022/03/25 00:23:55;;;;;;;455.13;41.42;;;8.60;99.90;;;;;;5077985;28;20048;-73
2022/03/25 00:26:21;;;;;;;388.27;36.50;;;8.80;99.90;;;;;;5046169;28;20045;-73
2022/03/25 00:28:47;;;;;;;370.50;34.13;;;8.90;99.90;;;;;;5042966;28;20207;-73
2022/03/25 00:31:13;;;;;;;408.90;35.88;;;8.60;99.90;;;;;;5071681;28;20029;-74
2022/03/25 00:33:42;;;;;;;326.50;32.95;;;9.40;99.90;;;;;;5062247;28;20362;-73
2022/03/25 00:36:10;;;;;;;385.75;33.50;;;9.30;99.90;;;;;;5054622;28;20063;-74
2022/03/25 00:38:36;;;;;;;455.98;37.33;;;8.40;99.90;;;;;;5048569;28;20104;-74
2022/03/25 00:41:01;;;;;;;429.58;36.78;;;8.60;99.90;;;;;;5057990;28;20040;-73
2022/03/25 00:43:28;;;;;;;365.98;36.05;;;8.50;99.90;;;;;;5062697;28;20350;-74
2022/03/25 00:45:54;;;;;;;425.80;40.03;;;8.40;99.90;;;;;;5027222;28;20040;-73
2022/03/25 00:48:20;;;;;;;450.42;37.33;;;8.50;99.90;;;;;;5075152;28;20040;-73
2022/03/25 00:50:46;;;;;;;385.50;34.42;;;8.70;99.90;;;;;;5029935;28;20040;-73
2022/03/25 00:53:11;;;;;;;379.77;35.38;;;8.80;99.90;;;;;;5059377;28;20117;-73
2022/03/25 00:55:38;;;;;;;344.80;32.88;;;8.50;99.90;;;;;;5078730;28;20357;-73
2022/03/25 00:58:04;;;;;;;291.13;32.97;;;8.50;99.90;;;;;;5076899;28;20094;-73
2022/03/25 01:00:30;;;;;;;290.20;32.65;;;8.80;99.90;;;;;;5067267;28;20262;-73
2022/03/25 01:02:55;;;;;;;255.55;29.60;;;8.90;99.90;;;;;;5074001;28;20025;-73
2022/03/25 01:05:21;;;;;;;313.70;31.02;;;8.80;99.90;;;;;;5066699;28;20037;-73
2022/03/25 01:07:47;;;;;;;337.63;32.35;;;8.80;99.90;;;;;;5035884;28;20327;-73
2022/03/25 01:10:13;;;;;;;351.08;34.22;;;8.90;99.90;;;;;;5059263;28;20103;-73
2022/03/25 01:12:39;;;;;;;314.92;33.20;;;8.70;99.90;;;;;;5052102;28;20036;-74
2022/03/25 01:15:05;;;;;;;321.13;30.75;;;8.90;99.90;;;;;;5067419;28;20043;-74
2022/03/25 01:17:31;;;;;;;446.80;39.63;;;8.90;99.90;;;;;;5066924;28;20099;-74
2022/03/25 01:19:57;;;;;;;327.25;34.60;;;8.60;99.90;;;;;;5063993;28;20416;-73
2022/03/25 01:22:23;;;;;;;305.45;30.65;;;8.80;99.90;;;;;;5064162;28;20114;-72
2022/03/25 01:24:49;;;;;;;397.90;38.72;;;9.10;99.90;;;;;;5047798;28;20044;-72
2022/03/25 01:27:15;;;;;;;298.13;33.15;;;8.70;99.90;;;;;;5082505;28;20041;-73
2022/03/25 01:29:41;;;;;;;342.60;33.70;;;8.70;99.90;;;;;;5080107;28;20075;-73
2022/03/25 01:32:08;;;;;;;237.25;29.75;;;8.80;99.90;;;;;;5080092;28;20036;-73
2022/03/25 01:34:34;;;;;;;387.45;36.97;;;9.00;99.90;;;;;;5035056;28;20443;-72
2022/03/25 01:37:01;;;;;;;244.52;32.40;;;8.90;99.90;;;;;;5079562;28;20063;-73
2022/03/25 01:39:27;;;;;;;475.27;45.00;;;9.10;99.90;;;;;;5072035;28;20079;-73
2022/03/25 01:41:54;;;;;;;332.15;36.03;;;9.00;99.90;;;;;;5076287;28;20052;-73
2022/03/25 01:44:30;;;;;;;411.13;40.55;;;8.90;99.90;;;;;;5063242;28;20040;-72
2022/03/25 01:46:57;;;;;;;373.85;34.70;;;9.20;99.90;;;;;;5061904;28;20171;-72
2022/03/25 01:49:23;;;;;;;249.63;31.08;;;9.10;99.90;;;;;;5062617;28;20085;-73
2022/03/25 01:51:51;;;;;;;125.88;28.67;;;9.20;99.90;;;;;;5066572;28;20033;-73
2022/03/25 01:54:31;;;;;;;90.15;25.65;;;9.20;99.90;;;;;;5063385;28;20126;-73
2022/03/25 01:57:03;;;;;;;43.15;26.67;;;9.30;99.90;;;;;;5063319;28;20041;-73
2022/03/25 01:59:30;;;;;;;97.00;26.80;;;9.70;99.90;;;;;;5062428;28;20282;-73
2022/03/25 02:01:56;;;;;;;66.50;26.77;;;9.50;99.90;;;;;;5045629;28;20051;-73
2022/03/25 02:04:23;;;;;;;52.78;29.08;;;9.40;99.90;;;;;;5052907;28;20054;-74
2022/03/25 02:06:49;;;;;;;82.28;26.00;;;9.50;99.90;;;;;;5056069;28;20285;-74
2022/03/25 02:09:15;;;;;;;45.03;26.63;;;9.80;99.90;;;;;;5031734;28;20040;-73
2022/03/25 02:11:42;;;;;;;45.55;27.23;;;9.50;99.90;;;;;;5078821;28;20041;-73
2022/03/25 02:14:09;;;;;;;46.92;28.38;;;9.70;99.90;;;;;;5060939;28;20036;-73
2022/03/25 02:16:39;;;;;;;53.08;30.70;;;9.60;99.90;;;;;;5048268;28;20116;-73
2022/03/25 02:19:06;;;;;;;52.53;30.08;;;10.10;99.90;;;;;;5063009;28;20037;-73
2022/03/25 02:21:33;;;;;;;56.15;32.17;;;9.60;99.90;;;;;;5047330;28;20842;-73
2022/03/25 02:24:00;;;;;;;241.70;32.28;;;10.20;99.90;;;;;;5068083;28;20392;-74
2022/03/25 02:26:29;;;;;;;406.27;35.83;;;9.70;99.90;;;;;;5072720;28;20052;-73
2022/03/25 02:28:56;;;;;;;429.48;36.20;;;9.80;99.90;;;;;;5062531;28;20330;-74
2022/03/25 02:31:22;;;;;;;342.48;31.50;;;9.80;99.90;;;;;;5063834;28;20040;-73
2022/03/25 02:33:47;;;;;;;285.33;29.83;;;9.50;99.90;;;;;;5078143;28;20038;-73
2022/03/25 02:36:13;;;;;;;244.60;26.02;;;9.60;99.90;;;;;;5072662;28;20285;-73
2022/03/25 02:38:39;;;;;;;145.00;27.10;;;9.90;99.90;;;;;;5061786;28;20250;-72
2022/03/25 02:41:05;;;;;;;212.93;30.83;;;8.70;99.90;;;;;;5063004;28;20056;-73
2022/03/25 02:43:31;;;;;;;68.28;22.90;;;10.00;99.90;;;;;;5074213;28;20041;-72
2022/03/25 02:45:57;;;;;;;59.58;22.55;;;9.80;99.90;;;;;;5070245;28;20102;-73
2022/03/25 02:48:22;;;;;;;205.40;25.52;;;10.10;99.90;;;;;;5062715;28;20310;-72
2022/03/25 02:50:48;;;;;;;110.45;25.10;;;10.00;99.90;;;;;;5049320;28;20376;-73
2022/03/25 02:53:15;;;;;;;211.77;25.58;;;10.00;99.90;;;;;;5044916;28;20491;-73
2022/03/25 02:55:41;;;;;;;325.83;27.85;;;10.00;99.90;;;;;;5073426;28;20279;-73
2022/03/25 02:58:08;;;;;;;469.13;33.45;;;10.30;99.90;;;;;;5062175;28;20043;-73
2022/03/25 03:00:34;;;;;;;471.40;35.80;;;10.10;99.90;;;;;;5050435;28;20107;-73
2022/03/25 03:03:00;;;;;;;427.92;31.65;;;10.10;99.90;;;;;;5064257;28;20071;-74
2022/03/25 03:05:30;;;;;;;374.13;33.42;;;9.90;99.90;;;;;;5074495;28;20108;-73
2022/03/25 03:07:57;;;;;;;539.53;39.88;;;9.60;99.90;;;;;;5062348;28;20048;-73
2022/03/25 03:10:24;;;;;;;487.60;39.72;;;9.90;99.90;;;;;;5072082;28;20045;-73
2022/03/25 03:12:50;;;;;;;510.15;40.08;;;9.70;99.90;;;;;;5076899;28;20222;-73
2022/03/25 03:15:17;;;;;;;558.30;43.38;;;9.80;99.90;;;;;;5077259;28;20048;-73
2022/03/25 03:17:45;;;;;;;575.40;44.65;;;9.90;99.90;;;;;;5052582;28;20246;-73
2022/03/25 03:20:12;;;;;;;439.55;37.05;;;10.20;99.90;;;;;;5058454;28;20215;-73
2022/03/25 03:22:40;;;;;;;395.30;34.13;;;9.70;99.90;;;;;;5060869;28;20127;-73
2022/03/25 03:25:06;;;;;;;346.48;31.42;;;9.70;99.90;;;;;;5063615;28;20360;-73
2022/03/25 03:27:32;;;;;;;557.30;42.20;;;9.60;99.90;;;;;;5060520;28;20113;-73
2022/03/25 03:29:58;;;;;;;527.72;41.85;;;10.30;99.90;;;;;;5077320;28;20078;-73
2022/03/25 03:32:25;;;;;;;348.55;33.85;;;9.90;99.90;;;;;;5062221;28;20041;-72
2022/03/25 03:34:53;;;;;;;414.20;34.22;;;9.80;99.90;;;;;;5060012;28;20043;-72
2022/03/25 03:37:20;;;;;;;503.38;38.75;;;10.20;99.90;;;;;;5058853;28;20040;-73
2022/03/25 03:39:45;;;;;;;301.35;31.67;;;9.80;99.90;;;;;;5076534;28;20273;-74
2022/03/25 03:42:11;;;;;;;465.10;40.53;;;10.10;99.90;;;;;;5075086;28;20036;-74
2022/03/25 03:44:38;;;;;;;539.42;42.17;;;10.30;99.90;;;;;;5046447;28;20341;-74
2022/03/25 03:47:06;;;;;;;492.15;40.03;;;9.90;99.90;;;;;;5074819;28;20049;-74
2022/03/25 03:49:32;;;;;;;303.38;30.45;;;10.20;99.90;;;;;;5061312;28;20071;-73
2022/03/25 03:51:58;;;;;;;387.55;37.65;;;9.70;99.90;;;;;;5062091;28;20102;-73
2022/03/25 03:54:23;;;;;;;423.98;36.75;;;9.70;99.90;;;;;;5027077;28;20323;-73
2022/03/25 03:56:49;;;;;;;392.55;35.78;;;10.30;99.90;;;;;;5052565;28;20044;-73
2022/03/25 03:59:15;;;;;;;437.90;38.58;;;9.80;99.90;;;;;;5080333;28;20056;-73
2022/03/25 04:01:41;;;;;;;401.30;36.97;;;10.00;99.90;;;;;;5075062;28;20055;-73
2022/03/25 04:04:06;;;;;;;417.77;38.80;;;9.60;99.90;;;;;;5077764;28;20046;-73
2022/03/25 04:06:32;;;;;;;458.98;40.92;;;10.10;99.90;;;;;;5068449;28;20041;-73
2022/03/25 04:08:58;;;;;;;386.20;38.97;;;10.20;99.90;;;;;;5061655;28;20040;-74
2022/03/25 04:11:25;;;;;;;416.15;40.28;;;9.80;99.90;;;;;;5077261;28;20034;-73
2022/03/25 04:13:51;;;;;;;384.55;41.47;;;10.50;99.90;;;;;;5067533;28;20241;-73
2022/03/25 04:16:16;;;;;;;214.05;34.38;;;10.20;99.90;;;;;;5043570;28;20086;-73
2022/03/25 04:18:42;;;;;;;158.43;32.00;;;10.60;99.90;;;;;;5060320;28;20052;-72
2022/03/25 04:21:08;;;;;;;125.60;32.72;;;10.20;99.90;;;;;;5037578;28;20089;-73
2022/03/25 04:23:34;;;;;;;53.10;30.27;;;10.10;99.90;;;;;;5061892;28;20044;-73
2022/03/25 04:25:59;;;;;;;54.25;30.08;;;10.00;99.90;;;;;;5045716;28;20339;-73
2022/03/25 04:28:25;;;;;;;54.17;29.73;;;10.60;99.90;;;;;;5077165;28;20036;-73
2022/03/25 04:30:51;;;;;;;55.58;29.35;;;10.80;99.90;;;;;;5060348;28;20045;-73
2022/03/25 04:33:16;;;;;;;51.85;29.85;;;10.20;99.90;;;;;;5058602;28;20273;-73
2022/03/25 04:35:42;;;;;;;58.17;31.15;;;10.20;99.90;;;;;;5061286;28;20041;-73
2022/03/25 04:38:08;;;;;;;52.97;27.67;;;10.90;99.90;;;;;;5026264;28;20127;-73
2022/03/25 04:40:34;;;;;;;67.40;33.33;;;10.90;99.90;;;;;;5072741;28;20210;-73
2022/03/25 04:43:01;;;;;;;64.88;34.17;;;11.10;99.90;;;;;;5074908;28;20075;-73
2022/03/25 04:45:29;;;;;;;58.35;30.35;;;10.50;99.90;;;;;;5067527;28;20040;-73
2022/03/25 04:47:55;;;;;;;59.50;30.88;;;10.30;99.90;;;;;;5063978;28;20113;-73
2022/03/25 04:50:21;;;;;;;58.30;31.70;;;10.70;99.90;;;;;;5077219;28;20044;-74
2022/03/25 04:52:48;;;;;;;51.00;27.40;;;10.50;99.90;;;;;;5078380;28;20032;-74
2022/03/25 04:55:14;;;;;;;61.40;32.85;;;11.10;99.90;;;;;;5074721;28;20285;-73
2022/03/25 04:57:41;;;;;;;61.38;31.77;;;10.50;99.90;;;;;;5060320;28;20043;-73
2022/03/25 05:00:08;;;;;;;66.13;33.75;;;11.20;99.90;;;;;;5043832;28;20135;-73
2022/03/25 05:02:34;;;;;;;59.72;32.10;;;11.20;99.90;;;;;;5061570;28;20415;-73
2022/03/25 05:05:02;;;;;;;69.18;35.10;;;10.60;99.90;;;;;;5074681;28;20044;-73
2022/03/25 05:07:29;;;;;;;66.53;34.90;;;11.30;99.90;;;;;;5076142;28;20089;-73
2022/03/25 05:09:58;;;;;;;65.53;35.28;;;10.80;99.90;;;;;;5076753;28;20099;-73
2022/03/25 05:12:25;;;;;;;60.15;33.28;;;10.60;99.90;;;;;;5060751;28;20036;-73
2022/03/25 05:14:51;;;;;;;66.50;35.22;;;11.20;99.90;;;;;;5037553;28;20029;-74
2022/03/25 05:17:17;;;;;;;65.28;32.10;;;11.20;99.90;;;;;;5057788;28;20330;-74
2022/03/25 05:19:42;;;;;;;68.35;36.08;;;11.40;99.90;;;;;;5049880;28;20072;-74
2022/03/25 05:22:08;;;;;;;69.40;35.20;;;11.60;99.90;;;;;;5067662;28;20278;-74
2022/03/25 05:24:34;;;;;;;70.38;34.40;;;11.10;99.90;;;;;;5070568;28;20047;-74
2022/03/25 05:27:00;;;;;;;64.80;32.03;;;11.00;99.90;;;;;;5073691;28;20037;-74
2022/03/25 05:29:26;;;;;;;70.80;35.97;;;11.00;99.90;;;;;;5015407;28;20036;-74
2022/03/25 05:31:55;;;;;;;70.30;35.70;;;11.10;99.90;;;;;;5075183;28;20048;-74
2022/03/25 05:34:21;;;;;;;71.78;36.80;;;11.40;99.90;;;;;;5078519;28;20099;-75
2022/03/25 05:36:46;;;;;;;68.18;36.25;;;11.40;99.90;;;;;;5058573;28;20448;-73
2022/03/25 05:39:14;;;;;;;66.88;34.88;;;11.90;99.90;;;;;;5063205;28;20311;-73
2022/03/25 05:41:41;;;;;;;68.72;35.45;;;10.90;99.90;;;;;;5058622;28;20056;-73
2022/03/25 05:44:07;;;;;;;64.47;33.80;;;11.70;99.90;;;;;;5060737;28;20048;-73
2022/03/25 05:46:34;;;;;;;72.72;38.03;;;11.10;99.90;;;;;;5051155;28;20150;-72
2022/03/25 05:49:00;;;;;;;73.30;37.58;;;11.00;99.90;;;;;;5072372;28;20231;-72
2022/03/25 05:51:26;;;;;;;71.88;35.80;;;11.70;99.90;;;;;;5073948;28;20112;-73
2022/03/25 05:53:51;;;;;;;71.30;34.47;;;11.80;99.90;;;;;;5060329;28;20040;-73
2022/03/25 05:56:17;;;;;;;67.35;34.30;;;11.20;99.90;;;;;;5060458;28;20051;-73
2022/03/25 05:58:43;;;;;;;76.53;39.72;;;11.60;99.90;;;;;;5047104;28;20060;-73
2022/03/25 06:01:09;;;;;;;73.75;37.10;;;11.40;99.90;;;;;;5028259;28;20041;-73
2022/03/25 06:03:35;;;;;;;76.82;39.20;;;12.20;99.90;;;;;;5067292;28;20044;-73
2022/03/25 06:06:03;;;;;;;74.82;38.78;;;12.40;99.90;;;;;;5068549;28;20036;-73
2022/03/25 06:08:30;;;;;;;82.82;40.75;;;11.80;99.90;;;;;;5069706;28;20290;-73
2022/03/25 06:10:56;;;;;;;78.65;38.33;;;11.60;99.90;;;;;;5048386;28;20215;-73
2022/03/25 06:13:22;;;;;;;79.45;40.92;;;11.90;99.90;;;;;;5081893;28;20099;-73
2022/03/25 06:15:48;;;;;;;76.88;39.97;;;12.20;99.90;;;;;;5059360;28;20032;-73
2022/03/25 06:18:14;;;;;;;81.22;39.63;;;12.40;99.90;;;;;;5031769;28;20312;-73
2022/03/25 06:20:40;;;;;;;78.28;39.78;;;12.60;99.90;;;;;;5036730;28;20368;-73
2022/03/25 06:23:06;;;;;;;76.20;40.08;;;12.30;99.90;;;;;;5045334;28;20049;-73
2022/03/25 06:25:32;;;;;;;79.15;39.65;;;12.10;99.90;;;;;;5051214;28;20039;-73
2022/03/25 06:27:59;;;;;;;80.22;42.80;;;13.20;99.90;;;;;;5065997;28;20322;-73
2022/03/25 06:30:30;;;;;;;79.15;41.05;;;12.70;99.90;;;;;;5064638;28;20043;-73
2022/03/25 06:32:56;;;;;;;75.18;41.03;;;12.90;99.90;;;;;;5082382;28;20094;-73
2022/03/25 06:35:23;;;;;;;77.35;38.78;;;13.50;99.90;;;;;;5078112;28;20044;-73
2022/03/25 06:37:48;;;;;;;68.10;38.30;;;13.60;99.90;;;;;;5082438;28;20040;-73
2022/03/25 06:40:15;;;;;;;71.18;40.65;;;13.40;99.90;;;;;;5081752;28;20346;-73
2022/03/25 06:42:42;;;;;;;70.05;38.85;;;13.30;99.90;;;;;;5050839;28;20080;-72
2022/03/25 06:45:10;;;;;;;73.05;37.60;;;13.10;99.90;;;;;;5064812;28;20103;-73
2022/03/25 06:47:37;;;;;;;63.05;35.10;;;13.80;99.90;;;;;;5076898;28;20277;-73
2022/03/25 06:50:03;;;;;;;71.00;38.90;;;13.20;99.90;;;;;;5082130;28;20055;-73
2022/03/25 06:52:29;;;;;;;66.93;35.63;;;13.90;99.90;;;;;;5074480;28;20041;-73
2022/03/25 06:54:55;;;;;;;63.05;35.85;;;13.90;99.90;;;;;;5069256;28;20086;-73
2022/03/25 06:57:21;;;;;;;59.90;33.88;;;14.70;99.90;;;;;;5032305;28;20208;-73
2022/03/25 06:59:47;;;;;;;60.08;32.67;;;14.30;99.90;;;;;;5061977;28;20044;-73
2022/03/25 07:02:15;;;;;;;56.47;31.88;;;14.60;99.90;;;;;;5057712;28;20055;-74
2022/03/25 07:04:42;;;;;;;62.40;32.17;;;14.10;99.90;;;;;;5047038;28;20103;-74
2022/03/25 07:07:08;;;;;;;51.33;29.85;;;14.40;99.90;;;;;;5075368;28;20131;-73
2022/03/25 07:09:35;;;;;;;53.67;30.40;;;14.70;99.90;;;;;;5064058;28;20032;-73
2022/03/25 07:12:02;;;;;;;53.05;30.00;;;14.30;99.90;;;;;;5071348;28;20307;-73
2022/03/25 07:14:29;;;;;;;54.92;30.88;;;15.40;99.90;;;;;;5076750;28;20040;-73
2022/03/25 07:16:55;;;;;;;52.17;30.27;;;14.90;99.90;;;;;;5069304;28;20037;-74
2022/03/25 07:19:25;;;;;;;51.63;30.00;;;15.60;99.90;;;;;;5062030;28;20040;-72
2022/03/25 07:21:51;;;;;;;54.35;29.40;;;15.30;99.90;;;;;;5067414;28;20075;-73
2022/03/25 07:24:17;;;;;;;56.13;30.63;;;15.70;99.90;;;;;;5043626;28;20058;-75
2022/03/25 07:26:43;;;;;;;49.60;28.05;;;15.60;99.90;;;;;;5073024;28;20053;-73
2022/03/25 07:29:10;;;;;;;53.58;28.70;;;17.00;99.90;;;;;;5064015;28;20219;-74
2022/03/25 07:31:37;;;;;;;46.45;29.10;;;17.10;99.90;;;;;;5063460;28;20103;-73
2022/03/25 07:34:03;;;;;;;49.80;29.85;;;15.90;99.90;;;;;;5063509;28;20075;-73
2022/03/25 07:36:29;;;;;;;49.05;28.05;;;17.10;99.90;;;;;;5047799;28;20044;-74
2022/03/25 07:38:55;;;;;;;51.38;30.77;;;17.30;99.90;;;;;;5075621;28;20337;-73
2022/03/25 07:41:21;;;;;;;49.30;29.67;;;17.30;99.90;;;;;;5063298;28;20231;-72
2022/03/25 07:43:47;;;;;;;47.63;27.88;;;16.20;99.90;;;;;;5048121;28;20037;-73
2022/03/25 07:46:13;;;;;;;40.95;25.40;;;17.20;99.90;;;;;;5056882;28;20121;-72
2022/03/25 07:48:39;;;;;;;42.55;25.50;;;17.10;99.90;;;;;;5060967;28;20304;-72
2022/03/25 07:51:04;;;;;;;46.30;28.15;;;16.40;99.90;;;;;;5046216;28;20086;-72
2022/03/25 07:53:32;;;;;;;44.60;27.33;;;16.40;99.90;;;;;;5054081;28;20093;-73
2022/03/25 07:55:58;;;;;;;45.67;27.52;;;17.00;99.90;;;;;;5071543;28;20041;-73
2022/03/25 07:58:24;;;;;;;39.75;25.13;;;16.90;99.90;;;;;;5079262;28;20054;-74
2022/03/25 08:00:52;;;;;;;39.90;26.38;;;17.20;99.90;;;;;;5072159;28;20040;-73
2022/03/25 08:03:18;;;;;;;40.70;27.05;;;16.60;99.90;;;;;;5060482;28;20044;-73
2022/03/25 08:05:45;;;;;;;39.92;24.40;;;16.70;99.90;;;;;;5062500;28;20045;-74
2022/03/25 08:08:11;;;;;;;37.65;23.50;;;16.50;99.90;;;;;;5044023;28;20215;-71
2022/03/25 08:10:39;;;;;;;37.72;23.65;;;16.20;99.90;;;;;;5048710;28;20040;-74
2022/03/25 08:13:05;;;;;;;33.22;22.20;;;16.30;99.90;;;;;;5062044;28;20208;-73
2022/03/25 08:15:36;;;;;;;33.42;21.15;;;16.40;99.90;;;;;;5045703;28;20083;-72
2022/03/25 08:18:03;;;;;;;36.30;21.48;;;15.60;99.90;;;;;;5060905;28;20072;-72
2022/03/25 08:20:36;;;;;;;35.53;22.77;;;15.70;99.90;;;;;;5062712;28;20032;-74
2022/03/25 08:23:04;;;;;;;33.05;20.17;;;15.70;99.90;;;;;;5070106;28;20045;-73
2022/03/25 08:28:16;;;;;;;;;;;14.80;99.90;;;;;;5065826;28;20044;-71
2022/03/25 08:30:43;;;;;;;28.95;18.65;;;14.20;99.90;;;;;;5079380;28;19912;-71
2022/03/25 08:33:10;;;;;;;26.55;17.80;;;13.70;99.90;;;;;;5095015;28;20044;-72
2022/03/25 08:35:37;;;;;;;27.17;18.20;;;12.90;99.90;;;;;;5062768;28;20287;-70
2022/03/25 08:38:04;;;;;;;32.83;19.63;;;12.50;99.90;;;;;;5077217;28;20280;-71
2022/03/25 08:40:32;;;;;;;29.13;19.23;;;11.90;99.90;;;;;;5079067;28;20053;-72
2022/03/25 08:42:58;;;;;;;30.23;19.95;;;11.60;99.90;;;;;;5074121;28;20028;-72
2022/03/25 08:45:24;;;;;;;28.42;18.02;;;11.40;99.90;;;;;;5061516;28;20044;-73
2022/03/25 08:47:51;;;;;;;29.50;19.08;;;11.20;99.90;;;;;;5069334;28;20041;-73
2022/03/25 08:50:18;;;;;;;30.23;18.00;;;11.10;99.90;;;;;;5059319;28;20123;-72
2022/03/25 08:52:45;;;;;;;28.35;16.42;;;10.90;99.90;;;;;;5066290;28;20052;-71
2022/03/25 08:55:12;;;;;;;26.55;18.40;;;11.00;99.90;;;;;;5059720;28;20242;-71
2022/03/25 08:57:38;;;;;;;29.23;17.08;;;11.10;99.90;;;;;;5071460;28;20064;-72
2022/03/25 09:00:07;;;;;;;23.92;16.75;;;11.20;99.90;;;;;;5072023;28;20045;-71
2022/03/25 09:02:33;;;;;;;29.23;16.95;;;11.10;99.90;;;;;;5067346;28;20350;-71
2022/03/25 09:04:58;;;;;;;24.40;15.73;;;11.10;99.90;;;;;;5039213;28;20099;-72
2022/03/25 09:07:24;;;;;;;25.05;16.33;;;11.30;99.90;;;;;;5058969;28;20045;-72
2022/03/25 09:09:50;;;;;;;23.40;16.00;;;11.40;99.90;;;;;;5070597;28;20094;-72
2022/03/25 09:12:15;;;;;;;24.33;15.75;;;11.60;99.90;;;;;;5052074;28;20044;-72
2022/03/25 09:14:41;;;;;;;22.65;16.00;;;11.60;99.90;;;;;;5056011;28;20049;-71
2022/03/25 09:17:07;;;;;;;25.90;16.17;;;11.60;99.90;;;;;;5062877;28;20191;-71
2022/03/25 09:19:33;;;;;;;26.00;16.52;;;11.70;99.90;;;;;;5036603;28;20057;-71
2022/03/25 09:21:59;;;;;;;24.55;16.20;;;11.90;99.90;;;;;;5053724;28;20080;-71
2022/03/25 09:24:24;;;;;;;25.88;17.63;;;12.10;99.90;;;;;;5056235;28;20048;-72
2022/03/25 09:26:50;;;;;;;27.30;17.13;;;12.20;99.90;;;;;;5021680;28;20048;-72
2022/03/25 09:29:16;;;;;;;23.08;16.80;;;12.30;99.90;;;;;;5053679;28;20045;-72
2022/03/25 09:31:43;;;;;;;28.48;16.15;;;12.40;99.90;;;;;;5017341;28;20235;-71
2022/03/25 09:36:57;;;;;;;26.85;16.88;;;12.60;99.90;;;;;;5045008;28;20056;-72
2022/03/25 09:39:22;;;;;;;27.85;15.50;;;12.70;99.90;;;;;;5057590;28;20076;-70
2022/03/25 09:41:50;;;;;;;24.17;15.98;;;12.90;99.90;;;;;;5058930;28;20579;-72
2022/03/25 09:44:16;;;;;;;25.42;16.00;;;13.10;99.90;;;;;;5041812;28;20053;-72
2022/03/25 09:46:43;;;;;;;23.00;15.93;;;13.00;99.90;;;;;;5058838;28;20123;-73
2022/03/25 09:49:12;;;;;;;26.33;15.32;;;13.60;99.90;;;;;;5053843;28;20105;-71
2022/03/25 09:51:40;;;;;;;23.30;14.88;;;13.70;99.90;;;;;;5055478;28;20083;-71
2022/03/25 09:54:11;;;;;;;23.13;15.70;;;13.90;99.90;;;;;;5040477;28;20045;-72
2022/03/25 09:56:37;;;;;;;24.42;16.35;;;14.10;99.90;;;;;;5051421;28;20259;-72
2022/03/25 09:59:03;;;;;;;27.33;17.58;;;14.10;99.90;;;;;;5040179;28;20071;-72
2022/03/25 10:01:29;;;;;;;24.10;16.23;;;14.30;99.90;;;;;;5011747;28;20106;-72
2022/03/25 10:03:54;;;;;;;24.23;17.08;;;14.00;99.90;;;;;;5058031;28;20048;-74
2022/03/25 10:06:20;;;;;;;26.30;17.48;;;14.50;99.90;;;;;;5056791;28;20060;-74
2022/03/25 10:08:56;;;;;;;23.73;16.83;;;14.40;99.90;;;;;;5053243;28;20380;-72
2022/03/25 10:11:28;;;;;;;22.83;16.52;;;14.70;99.90;;;;;;5030067;28;20059;-72
2022/03/25 10:14:19;;;;;;;26.60;16.80;;;14.70;99.90;;;;;;5058502;28;20192;-72
2022/03/25 10:16:47;;;;;;;30.00;18.17;;;14.50;99.20;;;;;;5041618;28;20064;-72
2022/03/25 10:19:16;;;;;;;22.15;16.90;;;14.80;99.90;;;;;;5021766;28;20049;-73
2022/03/25 10:21:51;;;;;;;26.38;18.15;;;15.00;99.90;;;;;;5038794;28;20053;-73
2022/03/25 10:24:20;;;;;;;25.58;19.20;;;15.00;99.90;;;;;;5034053;28;20083;-72
2022/03/25 10:26:46;;;;;;;27.42;18.70;;;14.90;99.90;;;;;;5057098;28;20242;-72
2022/03/25 10:29:22;;;;;;;30.30;18.85;;;14.90;99.30;;;;;;5040789;28;20051;-73
2022/03/25 10:32:09;;;;;;;25.13;18.40;;;15.20;98.00;;;;;;5058211;28;20040;-73
2022/03/25 10:34:39;;;;;;;29.00;18.80;;;15.00;95.70;;;;;;5038749;28;20219;-73
2022/03/25 10:37:07;;;;;;;28.85;17.17;;;14.90;95.00;;;;;;5040691;28;20052;-73
2022/03/25 10:39:33;;;;;;;25.10;17.70;;;15.30;99.90;;;;;;5041737;28;20098;-74
2022/03/25 10:42:04;;;;;;;29.73;19.75;;;15.20;91.70;;;;;;5058616;28;20245;-73
2022/03/25 10:44:41;;;;;;;28.23;20.23;;;14.90;93.20;;;;;;5039894;28;20067;-73
2022/03/25 10:47:19;;;;;;;30.27;20.20;;;15.30;91.50;;;;;;5040817;28;20049;-73
2022/03/25 10:49:48;;;;;;;26.42;19.58;;;15.20;81.50;;;;;;5056360;28;20059;-73
2022/03/25 10:52:41;;;;;;;28.00;18.77;;;15.20;90.80;;;;;;5040605;28;20076;-72
2022/03/25 10:55:34;;;;;;;30.80;19.70;;;15.50;82.60;;;;;;5036825;28;20051;-73
2022/03/25 10:57:59;;;;;;;25.00;18.15;;;15.30;79.10;;;;;;5053514;28;20044;-74
2022/03/25 11:00:26;;;;;;;28.98;19.42;;;15.50;92.30;;;;;;5056306;28;20042;-73
2022/03/25 11:02:53;;;;;;;27.70;19.23;;;15.50;89.00;;;;;;5057889;28;20043;-73
2022/03/25 11:05:20;;;;;;;32.75;20.52;;;15.20;84.90;;;;;;5057410;28;20341;-72
2022/03/25 11:07:48;;;;;;;27.25;19.67;;;15.40;84.40;;;;;;5057658;28;20113;-74
2022/03/25 11:10:17;;;;;;;25.17;18.65;;;15.60;85.80;;;;;;5056594;28;20141;-72
2022/03/25 11:12:52;;;;;;;30.45;20.08;;;15.60;85.20;;;;;;5057451;28;20059;-73
2022/03/25 11:15:20;;;;;;;25.92;19.13;;;15.30;81.30;;;;;;5040254;28;20045;-72
2022/03/25 11:17:46;;;;;;;26.58;20.08;;;15.60;87.10;;;;;;5040586;28;20439;-74
2022/03/25 11:20:15;;;;;;;28.75;18.92;;;15.70;88.60;;;;;;5039862;28;20447;-72
2022/03/25 11:22:51;;;;;;;26.65;18.77;;;15.50;79.80;;;;;;5024862;28;20064;-75
2022/03/25 11:25:21;;;;;;;27.15;18.92;;;15.50;77.00;;;;;;5053594;28;20060;-72
2022/03/25 11:27:57;;;;;;;24.90;17.52;;;15.30;77.90;;;;;;5037555;28;20347;-73
2022/03/25 11:30:23;;;;;;;28.00;19.98;;;15.50;79.10;;;;;;5039544;28;20491;-73
2022/03/25 11:33:00;;;;;;;25.25;18.40;;;15.50;81.30;;;;;;5040855;28;20072;-73
2022/03/25 11:35:26;;;;;;;27.23;17.50;;;15.70;77.90;;;;;;5073775;28;20048;-73
2022/03/25 11:38:10;;;;;;;25.65;17.08;;;15.40;76.30;;;;;;5057136;28;20040;-75
2022/03/25 11:40:44;;;;;;;28.90;18.90;;;15.40;70.50;;;;;;5058693;28;20056;-74
2022/03/25 11:43:17;;;;;;;25.83;17.75;;;15.60;75.40;;;;;;5042506;28;20049;-73
2022/03/25 11:45:58;;;;;;;25.60;17.42;;;15.70;76.70;;;;;;5058308;28;20036;-74
2022/03/25 11:48:24;;;;;;;25.80;17.55;;;15.70;73.50;;;;;;5052110;28;20044;-73
2022/03/25 11:50:50;;;;;;;24.45;16.55;;;15.70;76.40;;;;;;5057282;28;20223;-72
2022/03/25 11:53:16;;;;;;;23.52;15.30;;;15.90;76.10;;;;;;5040148;28;20111;-74
2022/03/25 11:56:06;;;;;;;23.60;14.50;;;15.70;70.30;;;;;;5040540;28;20044;-73
2022/03/25 11:58:35;;;;;;;25.50;16.35;;;15.70;68.90;;;;;;5053433;28;20289;-72
2022/03/25 12:01:06;;;;;;;21.95;14.85;;;15.80;70.90;;;;;;5069516;28;20047;-74
2022/03/25 12:03:44;;;;;;;20.88;14.38;;;15.70;67.90;;;;;;5073392;28;20051;-74
2022/03/25 12:06:11;;;;;;;20.88;14.00;;;15.70;67.10;;;;;;5069025;28;20353;-74
2022/03/25 12:08:39;;;;;;;18.08;12.52;;;15.60;64.20;;;;;;5058180;28;20262;-72
2022/03/25 12:11:07;;;;;;;19.90;13.48;;;15.70;65.50;;;;;;5057794;28;20096;-73
2022/03/25 12:13:52;;;;;;;22.63;13.85;;;15.80;64.40;;;;;;5056554;28;20322;-73
2022/03/25 12:16:49;;;;;;;23.75;13.35;;;15.60;60.40;;;;;;5057477;28;20400;-75
2022/03/25 12:19:27;;;;;;;22.73;14.13;;;15.70;61.80;;;;;;5068621;28;20246;-72
2022/03/25 12:21:56;;;;;;;23.17;14.95;;;15.70;62.50;;;;;;5052628;28;20044;-74
2022/03/25 12:24:24;;;;;;;20.58;14.73;;;15.40;61.20;;;;;;5039192;28;20405;-75
2022/03/25 12:27:02;;;;;;;21.45;13.82;;;15.50;62.10;;;;;;5052820;28;20048;-74
2022/03/25 12:29:33;;;;;;;23.98;14.68;;;15.50;62.30;;;;;;5053091;28;20327;-74
2022/03/25 12:32:04;;;;;;;21.13;14.65;;;15.50;62.40;;;;;;5053134;28;20049;-74
2022/03/25 12:34:37;;;;;;;20.73;15.02;;;15.50;62.40;;;;;;5020162;28;20322;-74
2022/03/25 12:37:04;;;;;;;22.05;15.85;;;15.60;62.40;;;;;;5042748;28;20072;-75